Patrick — WDC9572 — position and weather

sailwx.info

Track history (hours):
 
Tides and Currents Weather Stations Pressure Air Temp Water Temp Dewpoint Dewpoint Depression Visibility Wind Speed Wind Dir Waves Ship Positions

Patrick

Owner: SO CAL SHIP SERVICES, INC., TERMINAL ISLAND, CA. More information available from US FCC via Universal Licensing System and Coast Guard Vessel Documentation Center.

Last reported at 2017-Oct-17 20:55 UTC. Time now 2017-Nov-21 02:33 UTC.
Position N 33°44' W 118°16'.
Warning: this ship's position is 34 days out of date.

Type: Ship (hazmat cat B). MMSI: 367104070.

Date/timePositionNaut miles runAvg speedWind from/ knotsBaromVisibWave heightAir tempDewpointWater temp
2017-Oct-17 20:55N 33°44' W 118°16'0 0.0
2017-Oct-17 20:29N 33°44' W 118°16'0 0.8
2017-Oct-17 20:00N 33°44' W 118°16'0 0.7
2017-Oct-17 19:30N 33°44' W 118°16'0 0.0
2017-Oct-17 19:00N 33°44' W 118°16'5 9.9
2017-Oct-17 18:31N 33°40' W 118°13'714.3
2017-Oct-17 18:00N 33°34' W 118°07'4 8.7
2017-Oct-17 17:31N 33°38' W 118°11'814.9
2017-Oct-17 17:00N 33°44' W 118°16'0 0.5
2017-Oct-17 16:30N 33°44' W 118°16'2 3.4
2017-Oct-17 16:00N 33°43' W 118°15'816.8
2017-Oct-17 15:30N 33°36' W 118°09'2 3.2
2017-Oct-17 15:00N 33°35' W 118°08'611.3
2017-Oct-17 14:29N 33°39' W 118°12'610.1
2017-Oct-17 13:55N 33°44' W 118°16'612.0
2017-Oct-17 13:25N 33°39' W 118°12'613.9
2017-Oct-17 12:59N 33°35' W 118°08'811.2
2017-Oct-17 12:16N 33°41' W 118°14'4 0.4
2017-Oct-17 02:35N 33°44' W 118°16'0 0.0
2017-Oct-17 02:29N 33°44' W 118°16'0 0.0
2017-Oct-17 02:00N 33°44' W 118°16'510.6
2017-Oct-17 01:30N 33°40' W 118°12'713.3
2017-Oct-17 01:00N 33°35' W 118°08'3 5.7
2017-Oct-17 00:30N 33°37' W 118°10'816.8
2017-Oct-17 00:00N 33°43' W 118°16'1 1.6
2017-Oct-16 23:30N 33°44' W 118°16'0 0.0
2017-Oct-16 23:00N 33°44' W 118°16'0 0.0
2017-Oct-16 22:30N 33°44' W 118°16'0 0.0
2017-Oct-16 22:00N 33°44' W 118°16'0 0.0
2017-Oct-16 21:30N 33°44' W 118°16'0 0.0
2017-Oct-16 21:00N 33°44' W 118°16'0 0.7
2017-Oct-16 20:30N 33°44' W 118°17'0 0.7
2017-Oct-16 20:00N 33°44' W 118°16'0 0.0
2017-Oct-16 19:30N 33°44' W 118°16'0 0.5
2017-Oct-16 19:00N 33°44' W 118°16'815.3
2017-Oct-16 18:30N 33°37' W 118°11'510.0
2017-Oct-16 18:00N 33°34' W 118°07'713.2
2017-Oct-16 17:30N 33°39' W 118°12'612.2
2017-Oct-16 17:00N 33°44' W 118°16'0 0.0
2017-Oct-16 16:29N 33°44' W 118°16'0 0.0
2017-Oct-16 16:00N 33°44' W 118°16'4 8.7
2017-Oct-16 15:30N 33°41' W 118°13'817.1
2017-Oct-16 15:01N 33°34' W 118°07'12 9.7
2017-Oct-16 13:44N 33°44' W 118°16'816.1
2017-Oct-16 13:15N 33°38' W 118°10'513.1
2017-Oct-16 12:54N 33°34' W 118°07'513.4
2017-Oct-16 12:30N 33°38' W 118°11'710.5
2017-Oct-16 11:47N 33°44' W 118°16'0 0.0
2017-Oct-16 03:08N 33°44' W 118°16'0 0.0
2017-Oct-16 03:00N 33°44' W 118°16'0 0.0
2017-Oct-16 02:29N 33°44' W 118°16'0 0.0
2017-Oct-16 02:00N 33°44' W 118°16'4 7.3
2017-Oct-16 01:30N 33°41' W 118°13'815.9
2017-Oct-16 01:00N 33°35' W 118°08'0 0.5
2017-Oct-16 00:30N 33°35' W 118°08'0 0.0
2017-Oct-16 00:00N 33°35' W 118°08'0 0.0
2017-Oct-15 23:29N 33°35' W 118°08'0 0.0
2017-Oct-15 22:59N 33°35' W 118°08'0 0.0
2017-Oct-15 22:30N 33°35' W 118°08'0 0.0
2017-Oct-15 22:00N 33°35' W 118°08'0 0.3
2017-Oct-15 21:30N 33°35' W 118°08'0 0.2
2017-Oct-15 20:59N 33°35' W 118°08'0 0.1
2017-Oct-15 20:27N 33°35' W 118°08'817.2
2017-Oct-15 20:00N 33°41' W 118°13'4 7.6
2017-Oct-15 19:30N 33°44' W 118°16'0 0.0
2017-Oct-15 19:00N 33°44' W 118°16'3 5.8
2017-Oct-15 18:30N 33°42' W 118°14'817.0
2017-Oct-15 18:00N 33°35' W 118°08'2 3.1
2017-Oct-15 17:30N 33°34' W 118°07'0 0.0
2017-Oct-15 17:00N 33°34' W 118°07'0 0.1
2017-Oct-15 16:31N 33°34' W 118°07'0 0.1
2017-Oct-15 16:00N 33°34' W 118°07'1 2.7
2017-Oct-15 15:30N 33°35' W 118°08'1 2.5
2017-Oct-15 15:00N 33°34' W 118°07'1 1.2
2017-Oct-15 14:00N 33°35' W 118°08'0 0.0
2017-Oct-15 13:30N 33°35' W 118°08'0 0.5
2017-Oct-15 13:00N 33°35' W 118°08'4 8.8
2017-Oct-15 12:31N 33°38' W 118°11'714.4
2017-Oct-15 12:00N 33°44' W 118°16'0 0.0
2017-Oct-15 01:12N 33°44' W 118°16'0 0.0
2017-Oct-15 01:00N 33°44' W 118°16'0 0.0
2017-Oct-15 00:30N 33°44' W 118°16'0 0.0
2017-Oct-15 00:00N 33°44' W 118°16'0 0.0
2017-Oct-14 23:30N 33°44' W 118°16'0 0.0
2017-Oct-14 23:00N 33°44' W 118°16'0 0.0
2017-Oct-14 22:30N 33°44' W 118°16'0 0.0
2017-Oct-14 22:00N 33°44' W 118°16'0 0.0
2017-Oct-14 21:30N 33°44' W 118°16'0 0.0
2017-Oct-14 21:00N 33°44' W 118°16'0 0.0
2017-Oct-14 20:30N 33°44' W 118°16'0 0.0
2017-Oct-14 20:00N 33°44' W 118°16'0 0.0
2017-Oct-14 19:30N 33°44' W 118°16'0 0.0
2017-Oct-14 19:00N 33°44' W 118°16'4 8.6
2017-Oct-14 18:30N 33°41' W 118°13'714.0
2017-Oct-14 17:59N 33°35' W 118°08'1 2.8
2017-Oct-14 17:30N 33°34' W 118°07'0 0.0
2017-Oct-14 17:00N 33°34' W 118°07'0 0.0
2017-Oct-14 16:30N 33°34' W 118°07'0 0.1
2017-Oct-14 16:00N 33°34' W 118°07'0 0.1
2017-Oct-14 15:30N 33°34' W 118°07'0 0.6
2017-Oct-14 15:00N 33°34' W 118°07'1 1.8
2017-Oct-14 14:30N 33°35' W 118°08'0 0.0
2017-Oct-14 14:00N 33°35' W 118°08'0 0.0
2017-Oct-14 13:30N 33°35' W 118°08'1 2.5
2017-Oct-14 13:00N 33°34' W 118°07'713.5
2017-Oct-14 12:27N 33°40' W 118°12'511.9
2017-Oct-14 12:00N 33°44' W 118°16'0 0.0
2017-Oct-14 03:03N 33°44' W 118°16'0 0.0
2017-Oct-14 03:00N 33°44' W 118°16'0 0.0
2017-Oct-14 02:30N 33°44' W 118°16'1 1.4
2017-Oct-14 02:00N 33°43' W 118°16'815.1
2017-Oct-14 01:30N 33°37' W 118°10'4 7.5
2017-Oct-14 00:58N 33°34' W 118°07'612.3
2017-Oct-14 00:30N 33°39' W 118°11'713.0
2017-Oct-14 00:00N 33°44' W 118°16'0 0.0
2017-Oct-13 23:30N 33°44' W 118°16'0 0.0
2017-Oct-13 23:00N 33°44' W 118°16'0 0.0
2017-Oct-13 22:30N 33°44' W 118°16'0 0.0
2017-Oct-13 22:00N 33°44' W 118°16'511.0
2017-Oct-13 21:30N 33°40' W 118°12'612.2
2017-Oct-13 21:00N 33°35' W 118°08'510.8
2017-Oct-13 20:31N 33°40' W 118°06'713.4
2017-Oct-13 20:00N 33°45' W 118°11'4 8.7
2017-Oct-13 19:30N 33°44' W 118°16'0 0.7
2017-Oct-13 19:01N 33°44' W 118°16'713.9
2017-Oct-13 18:30N 33°38' W 118°12'611.4
2017-Oct-13 17:59N 33°34' W 118°07'715.0
2017-Oct-13 17:30N 33°40' W 118°12'611.1
2017-Oct-13 17:00N 33°44' W 118°16'1 1.2
2017-Oct-13 16:30N 33°44' W 118°16'714.9
2017-Oct-13 16:00N 33°38' W 118°10'5 9.8
2017-Oct-13 15:30N 33°34' W 118°07'4 8.4
2017-Oct-13 15:01N 33°37' W 118°10'815.0
2017-Oct-13 14:30N 33°43' W 118°16'1 1.6
2017-Oct-13 14:00N 33°44' W 118°16'714.7
2017-Oct-13 13:30N 33°38' W 118°11'4 8.0
2017-Oct-13 13:00N 33°35' W 118°08'712.5
2017-Oct-13 12:28N 33°40' W 118°12'5 8.3
2017-Oct-13 11:51N 33°44' W 118°16'0 0.0
2017-Oct-13 03:21N 33°44' W 118°16'0 0.0
2017-Oct-13 03:00N 33°44' W 118°16'0 0.0
2017-Oct-13 02:29N 33°44' W 118°16'2 5.0
2017-Oct-13 02:00N 33°42' W 118°15'816.4
2017-Oct-13 01:31N 33°36' W 118°09'1 1.4
2017-Oct-13 01:00N 33°35' W 118°08'  
Track history (hours):
 
Tides and Currents Weather Stations Pressure Air Temp Water Temp Dewpoint Dewpoint Depression Visibility Wind Speed Wind Dir Waves Ship Positions

Patrick

Owner: SO CAL SHIP SERVICES, INC., TERMINAL ISLAND, CA. More information available from US FCC via Universal Licensing System and Coast Guard Vessel Documentation Center.

Last reported at 2017-Oct-17 20:55 UTC. Time now 2017-Nov-21 02:33 UTC.
Position N 33°44' W 118°16'.
Warning: this ship's position is 34 days out of date.

Type: Ship (hazmat cat B). MMSI: 367104070.

Date/timePositionNaut miles runAvg speedWind from/ knotsBaromVisibWave heightAir tempDewpointWater temp
2017-Oct-17 20:55N 33°44' W 118°16'0 0.0
2017-Oct-17 20:29N 33°44' W 118°16'0 0.8
2017-Oct-17 20:00N 33°44' W 118°16'0 0.7
2017-Oct-17 19:30N 33°44' W 118°16'0 0.0
2017-Oct-17 19:00N 33°44' W 118°16'5 9.9
2017-Oct-17 18:31N 33°40' W 118°13'714.3
2017-Oct-17 18:00N 33°34' W 118°07'4 8.7
2017-Oct-17 17:31N 33°38' W 118°11'814.9
2017-Oct-17 17:00N 33°44' W 118°16'0 0.5
2017-Oct-17 16:30N 33°44' W 118°16'2 3.4
2017-Oct-17 16:00N 33°43' W 118°15'816.8
2017-Oct-17 15:30N 33°36' W 118°09'2 3.2
2017-Oct-17 15:00N 33°35' W 118°08'611.3
2017-Oct-17 14:29N 33°39' W 118°12'610.1
2017-Oct-17 13:55N 33°44' W 118°16'612.0
2017-Oct-17 13:25N 33°39' W 118°12'613.9
2017-Oct-17 12:59N 33°35' W 118°08'811.2
2017-Oct-17 12:16N 33°41' W 118°14'4 0.4
2017-Oct-17 02:35N 33°44' W 118°16'0 0.0
2017-Oct-17 02:29N 33°44' W 118°16'0 0.0
2017-Oct-17 02:00N 33°44' W 118°16'510.6
2017-Oct-17 01:30N 33°40' W 118°12'713.3
2017-Oct-17 01:00N 33°35' W 118°08'3 5.7
2017-Oct-17 00:30N 33°37' W 118°10'816.8
2017-Oct-17 00:00N 33°43' W 118°16'1 1.6
2017-Oct-16 23:30N 33°44' W 118°16'0 0.0
2017-Oct-16 23:00N 33°44' W 118°16'0 0.0
2017-Oct-16 22:30N 33°44' W 118°16'0 0.0
2017-Oct-16 22:00N 33°44' W 118°16'0 0.0
2017-Oct-16 21:30N 33°44' W 118°16'0 0.0
2017-Oct-16 21:00N 33°44' W 118°16'0 0.7
2017-Oct-16 20:30N 33°44' W 118°17'0 0.7
2017-Oct-16 20:00N 33°44' W 118°16'0 0.0
2017-Oct-16 19:30N 33°44' W 118°16'0 0.5
2017-Oct-16 19:00N 33°44' W 118°16'815.3
2017-Oct-16 18:30N 33°37' W 118°11'510.0
2017-Oct-16 18:00N 33°34' W 118°07'713.2
2017-Oct-16 17:30N 33°39' W 118°12'612.2
2017-Oct-16 17:00N 33°44' W 118°16'0 0.0
2017-Oct-16 16:29N 33°44' W 118°16'0 0.0
2017-Oct-16 16:00N 33°44' W 118°16'4 8.7
2017-Oct-16 15:30N 33°41' W 118°13'817.1
2017-Oct-16 15:01N 33°34' W 118°07'12 9.7
2017-Oct-16 13:44N 33°44' W 118°16'816.1
2017-Oct-16 13:15N 33°38' W 118°10'513.1
2017-Oct-16 12:54N 33°34' W 118°07'513.4
2017-Oct-16 12:30N 33°38' W 118°11'710.5
2017-Oct-16 11:47N 33°44' W 118°16'0 0.0
2017-Oct-16 03:08N 33°44' W 118°16'0 0.0
2017-Oct-16 03:00N 33°44' W 118°16'0 0.0
2017-Oct-16 02:29N 33°44' W 118°16'0 0.0
2017-Oct-16 02:00N 33°44' W 118°16'4 7.3
2017-Oct-16 01:30N 33°41' W 118°13'815.9
2017-Oct-16 01:00N 33°35' W 118°08'0 0.5
2017-Oct-16 00:30N 33°35' W 118°08'0 0.0
2017-Oct-16 00:00N 33°35' W 118°08'0 0.0
2017-Oct-15 23:29N 33°35' W 118°08'0 0.0
2017-Oct-15 22:59N 33°35' W 118°08'0 0.0
2017-Oct-15 22:30N 33°35' W 118°08'0 0.0
2017-Oct-15 22:00N 33°35' W 118°08'0 0.3
2017-Oct-15 21:30N 33°35' W 118°08'0 0.2
2017-Oct-15 20:59N 33°35' W 118°08'0 0.1
2017-Oct-15 20:27N 33°35' W 118°08'817.2
2017-Oct-15 20:00N 33°41' W 118°13'4 7.6
2017-Oct-15 19:30N 33°44' W 118°16'0 0.0
2017-Oct-15 19:00N 33°44' W 118°16'3 5.8
2017-Oct-15 18:30N 33°42' W 118°14'817.0
2017-Oct-15 18:00N 33°35' W 118°08'2 3.1
2017-Oct-15 17:30N 33°34' W 118°07'0 0.0
2017-Oct-15 17:00N 33°34' W 118°07'0 0.1
2017-Oct-15 16:31N 33°34' W 118°07'0 0.1
2017-Oct-15 16:00N 33°34' W 118°07'1 2.7
2017-Oct-15 15:30N 33°35' W 118°08'1 2.5
2017-Oct-15 15:00N 33°34' W 118°07'1 1.2
2017-Oct-15 14:00N 33°35' W 118°08'0 0.0
2017-Oct-15 13:30N 33°35' W 118°08'0 0.5
2017-Oct-15 13:00N 33°35' W 118°08'4 8.8
2017-Oct-15 12:31N 33°38' W 118°11'714.4
2017-Oct-15 12:00N 33°44' W 118°16'0 0.0
2017-Oct-15 01:12N 33°44' W 118°16'0 0.0
2017-Oct-15 01:00N 33°44' W 118°16'0 0.0
2017-Oct-15 00:30N 33°44' W 118°16'0 0.0
2017-Oct-15 00:00N 33°44' W 118°16'0 0.0
2017-Oct-14 23:30N 33°44' W 118°16'0 0.0
2017-Oct-14 23:00N 33°44' W 118°16'0 0.0
2017-Oct-14 22:30N 33°44' W 118°16'0 0.0
2017-Oct-14 22:00N 33°44' W 118°16'0 0.0
2017-Oct-14 21:30N 33°44' W 118°16'0 0.0
2017-Oct-14 21:00N 33°44' W 118°16'0 0.0
2017-Oct-14 20:30N 33°44' W 118°16'0 0.0
2017-Oct-14 20:00N 33°44' W 118°16'0 0.0
2017-Oct-14 19:30N 33°44' W 118°16'0 0.0
2017-Oct-14 19:00N 33°44' W 118°16'4 8.6
2017-Oct-14 18:30N 33°41' W 118°13'714.0
2017-Oct-14 17:59N 33°35' W 118°08'1 2.8
2017-Oct-14 17:30N 33°34' W 118°07'0 0.0
2017-Oct-14 17:00N 33°34' W 118°07'0 0.0
2017-Oct-14 16:30N 33°34' W 118°07'0 0.1
2017-Oct-14 16:00N 33°34' W 118°07'0 0.1
2017-Oct-14 15:30N 33°34' W 118°07'0 0.6
2017-Oct-14 15:00N 33°34' W 118°07'1 1.8
2017-Oct-14 14:30N 33°35' W 118°08'0 0.0
2017-Oct-14 14:00N 33°35' W 118°08'0 0.0
2017-Oct-14 13:30N 33°35' W 118°08'1 2.5
2017-Oct-14 13:00N 33°34' W 118°07'713.5
2017-Oct-14 12:27N 33°40' W 118°12'511.9
2017-Oct-14 12:00N 33°44' W 118°16'0 0.0
2017-Oct-14 03:03N 33°44' W 118°16'0 0.0
2017-Oct-14 03:00N 33°44' W 118°16'0 0.0
2017-Oct-14 02:30N 33°44' W 118°16'1 1.4
2017-Oct-14 02:00N 33°43' W 118°16'815.1
2017-Oct-14 01:30N 33°37' W 118°10'4 7.5
2017-Oct-14 00:58N 33°34' W 118°07'612.3
2017-Oct-14 00:30N 33°39' W 118°11'713.0
2017-Oct-14 00:00N 33°44' W 118°16'0 0.0
2017-Oct-13 23:30N 33°44' W 118°16'0 0.0
2017-Oct-13 23:00N 33°44' W 118°16'0 0.0
2017-Oct-13 22:30N 33°44' W 118°16'0 0.0
2017-Oct-13 22:00N 33°44' W 118°16'511.0
2017-Oct-13 21:30N 33°40' W 118°12'612.2
2017-Oct-13 21:00N 33°35' W 118°08'510.8
2017-Oct-13 20:31N 33°40' W 118°06'713.4
2017-Oct-13 20:00N 33°45' W 118°11'4 8.7
2017-Oct-13 19:30N 33°44' W 118°16'0 0.7
2017-Oct-13 19:01N 33°44' W 118°16'713.9
2017-Oct-13 18:30N 33°38' W 118°12'611.4
2017-Oct-13 17:59N 33°34' W 118°07'715.0
2017-Oct-13 17:30N 33°40' W 118°12'611.1
2017-Oct-13 17:00N 33°44' W 118°16'1 1.2
2017-Oct-13 16:30N 33°44' W 118°16'714.9
2017-Oct-13 16:00N 33°38' W 118°10'5 9.8
2017-Oct-13 15:30N 33°34' W 118°07'4 8.4
2017-Oct-13 15:01N 33°37' W 118°10'815.0
2017-Oct-13 14:30N 33°43' W 118°16'1 1.6
2017-Oct-13 14:00N 33°44' W 118°16'714.7
2017-Oct-13 13:30N 33°38' W 118°11'4 8.0
2017-Oct-13 13:00N 33°35' W 118°08'712.5
2017-Oct-13 12:28N 33°40' W 118°12'5 8.3
2017-Oct-13 11:51N 33°44' W 118°16'0 0.0
2017-Oct-13 03:21N 33°44' W 118°16'0 0.0
2017-Oct-13 03:00N 33°44' W 118°16'0 0.0
2017-Oct-13 02:29N 33°44' W 118°16'2 5.0
2017-Oct-13 02:00N 33°42' W 118°15'816.4
2017-Oct-13 01:31N 33°36' W 118°09'1 1.4
2017-Oct-13 01:00N 33°35' W 118°08'  

Dump ship's entire track history